Time,TemperatureF,DewpointF,PressureIn,WindDirection,WindDirectionDegrees,WindSpeedMPH,WindSpeedGustMPH,Humidity,HourlyPrecipIn,Conditions,Clouds,dailyrainin,SoftwareType,DateUTC
2013-04-06 07:50:00,81.4,72.7,30.02,ENE,69,11.0,20.0,75,0.00,,,0.00,Wunderground v.1.15,2013-04-06 11:50:00,
2013-04-06 12:20:00,85.5,73.3,30.02,ESE,109,12.0,12.0,67,0.00,,,0.00,Wunderground v.1.15,2013-04-06 16:20:00,
2013-04-06 12:30:00,85.3,73.1,30.02,East,87,13.0,19.0,67,0.00,,,0.00,Wunderground v.1.15,2013-04-06 16:30:00,
2013-04-06 12:40:00,85.7,73.5,30.01,East,98,12.0,14.0,67,0.00,,,0.00,Wunderground v.1.15,2013-04-06 16:40:00,
2013-04-06 12:50:00,86.1,73.0,30.01,ESE,107,12.0,14.0,65,0.00,,,0.00,Wunderground v.1.15,2013-04-06 16:50:00,
2013-04-06 13:00:00,85.1,72.9,30.01,ESE,104,13.0,15.0,67,0.00,,,0.00,Wunderground v.1.15,2013-04-06 17:00:00,
2013-04-06 13:10:00,85.3,73.5,30.01,East,101,11.0,11.0,68,0.00,,,0.00,Wunderground v.1.15,2013-04-06 17:10:00,
2013-04-06 13:20:00,84.9,73.2,30.01,ESE,104,13.0,17.0,68,0.00,,,0.00,Wunderground v.1.15,2013-04-06 17:20:00,
2013-04-06 13:30:00,85.1,73.3,30.01,ESE,105,12.0,14.0,68,0.00,,,0.00,Wunderground v.1.15,2013-04-06 17:30:00,
2013-04-06 13:40:00,85.3,73.5,30.00,SE,126,12.0,15.0,68,0.00,,,0.00,Wunderground v.1.15,2013-04-06 17:40:00,
2013-04-06 13:50:00,85.9,73.2,29.99,East,87,11.0,16.0,66,0.00,,,0.00,Wunderground v.1.15,2013-04-06 17:50:00,
2013-04-06 14:00:00,85.5,73.3,29.99,ESE,108,12.0,12.0,67,0.00,,,0.00,Wunderground v.1.15,2013-04-06 18:00:00,
2013-04-06 14:10:00,85.7,73.5,29.99,East,94,11.0,15.0,67,0.00,,,0.00,Wunderground v.1.15,2013-04-06 18:10:00,
2013-04-06 14:30:00,85.1,73.3,29.98,East,86,12.0,12.0,68,0.00,,,0.00,Wunderground v.1.15,2013-04-06 18:30:00,
2013-04-06 14:40:00,84.9,73.2,29.97,ENE,75,12.0,12.0,68,0.00,,,0.00,Wunderground v.1.15,2013-04-06 18:40:00,
2013-04-06 14:50:00,84.9,73.2,29.97,East,97,12.0,12.0,68,0.00,,,0.00,Wunderground v.1.15,2013-04-06 18:50:00,
2013-04-06 15:00:00,85.5,73.3,29.97,ESE,113,10.0,10.0,67,0.00,,,0.00,Wunderground v.1.15,2013-04-06 19:00:00,
2013-04-06 15:10:00,84.5,72.8,29.97,ESE,114,11.0,11.0,68,0.00,,,0.00,Wunderground v.1.15,2013-04-06 19:10:00,
2013-04-06 15:20:00,84.5,73.2,29.96,ENE,63,12.0,16.0,69,0.00,,,0.00,Wunderground v.1.15,2013-04-06 19:20:00,
2013-04-06 15:30:00,84.3,73.0,29.96,ESE,113,12.0,12.0,69,0.00,,,0.00,Wunderground v.1.15,2013-04-06 19:30:00,
2013-04-06 15:40:00,84.1,73.3,29.95,East,82,12.0,17.0,70,0.00,,,0.00,Wunderground v.1.15,2013-04-06 19:40:00,
2013-04-06 15:50:00,83.8,73.8,29.95,East,81,11.0,11.0,72,0.00,,,0.00,Wunderground v.1.15,2013-04-06 19:50:00,
2013-04-06 16:00:00,84.1,73.7,29.95,East,94,10.0,19.0,71,0.00,,,0.00,Wunderground v.1.15,2013-04-06 20:00:00,
2013-04-06 16:10:00,83.4,73.0,29.95,ESE,117,12.0,12.0,71,0.00,,,0.00,Wunderground v.1.15,2013-04-06 20:10:00,
2013-04-06 16:20:00,83.0,72.6,29.94,East,94,12.0,12.0,71,0.00,,,0.00,Wunderground v.1.15,2013-04-06 20:20:00,
2013-04-06 16:30:00,82.4,72.5,29.94,SE,140,12.0,12.0,72,0.00,,,0.00,Wunderground v.1.15,2013-04-06 20:30:00,
2013-04-06 16:40:00,82.4,72.9,29.94,ESE,105,13.0,13.0,73,0.00,,,0.00,Wunderground v.1.15,2013-04-06 20:40:00,
2013-04-06 16:50:00,82.0,72.9,29.95,ENE,78,11.0,13.0,74,0.00,,,0.00,Wunderground v.1.15,2013-04-06 20:50:00,
2013-04-06 17:00:00,81.8,72.7,29.95,East,99,12.0,17.0,74,0.00,,,0.00,Wunderground v.1.15,2013-04-06 21:00:00,
2013-04-06 17:10:00,81.4,72.3,29.95,ESE,105,12.0,13.0,74,0.00,,,0.00,Wunderground v.1.15,2013-04-06 21:10:00,
2013-04-06 17:20:00,81.4,72.7,29.95,ESE,116,11.0,11.0,75,0.00,,,0.00,Wunderground v.1.15,2013-04-06 21:20:00,
2013-04-06 17:30:00,81.2,72.9,29.95,SE,125,12.0,16.0,76,0.00,,,0.00,Wunderground v.1.15,2013-04-06 21:30:00,